Time;durP1;ratioP1;P1;durP2;ratioP2;P2;SDS_P1;SDS_P2;PMS_P1;PMS_P2;Temp;Humidity;BMP_temperature;BMP_pressure;BME280_temperature;BME280_humidity;BME280_pressure;Samples;Min_cycle;Max_cycle;Signal;HPM_P1;HPM_P2
2022/01/23 00:01:11;;;;;;;37.95;30.33;;;;;;;4.22;93.45;103508.94;5028564;28;20128;-70
2022/01/23 00:03:42;;;;;;;41.15;32.35;;;;;;;4.19;93.18;103506.34;5022690;28;20026;-70
2022/01/23 00:06:07;;;;;;;42.53;32.03;;;;;;;4.19;93.49;103504.56;5030336;28;20017;-71
2022/01/23 00:08:32;;;;;;;37.67;31.10;;;;;;;4.18;93.51;103507.22;5022626;28;20075;-70
2022/01/23 00:10:58;;;;;;;39.40;31.08;;;;;;;4.17;93.54;103502.84;5024740;28;20510;-70
2022/01/23 00:18:49;;;;;;;40.33;30.33;;;;;;;4.14;93.94;103498.47;4963317;28;20039;-70
2022/01/23 00:21:15;;;;;;;41.28;32.00;;;;;;;4.15;94.09;103494.09;5016487;28;20090;-69
2022/01/23 00:31:36;;;;;;;39.25;30.45;;;;;;;4.14;93.48;103495.84;5027325;28;20044;-69
2022/01/23 00:34:01;;;;;;;40.63;30.67;;;;;;;4.13;94.15;103490.59;5029856;28;20045;-69
2022/01/23 00:36:28;;;;;;;42.13;31.20;;;;;;;4.13;93.95;103486.22;5021631;28;20029;-69
2022/01/23 00:38:54;;;;;;;37.72;30.15;;;;;;;4.12;93.94;103479.22;5027522;28;20075;-70
2022/01/23 00:41:19;;;;;;;39.03;30.80;;;;;;;4.08;94.01;103473.09;5029756;28;20029;-70
2022/01/23 00:43:45;;;;;;;37.92;30.92;;;;;;;4.11;93.98;103479.22;5028240;28;20120;-70
2022/01/23 00:51:32;;;;;;;37.30;29.90;;;;;;;4.13;94.03;103477.44;5029668;28;20030;-70
2022/01/23 00:53:59;;;;;;;37.58;30.27;;;;;;;4.12;94.01;103475.72;5029615;28;20281;-70
2022/01/23 00:56:25;;;;;;;38.17;30.42;;;;;;;4.12;93.64;103473.94;5028655;28;20029;-70
2022/01/23 00:58:50;;;;;;;36.60;29.13;;;;;;;4.13;93.84;103477.44;5029461;28;20040;-69
2022/01/23 01:01:16;;;;;;;36.33;28.52;;;;;;;4.12;94.14;103476.56;5029335;28;20060;-70
2022/01/23 01:03:42;;;;;;;38.35;29.15;;;;;;;4.11;93.73;103472.19;5029494;28;20025;-70
2022/01/23 01:06:08;;;;;;;37.60;28.67;;;;;;;4.13;93.93;103480.97;5018212;28;20029;-70
2022/01/23 01:08:33;;;;;;;39.55;28.83;;;;;;;4.14;93.96;103473.94;5025890;28;20084;-70
2022/01/23 01:33:10;;;;;;;39.85;30.60;;;;;;;4.15;93.70;103481.81;5032957;28;20052;-70
2022/01/23 01:35:41;;;;;;;36.22;28.20;;;;;;;4.15;94.26;103488.84;5028662;28;20075;-70
2022/01/23 01:38:06;;;;;;;40.95;28.33;;;;;;;4.16;93.95;103482.69;5032349;28;20045;-70
2022/01/23 01:40:32;;;;;;;37.90;29.10;;;;;;;4.14;93.94;103484.47;5032467;28;20033;-70
2022/01/23 01:42:57;;;;;;;37.83;29.27;;;;;;;4.15;93.85;103488.84;5018499;28;20025;-70
2022/01/23 01:45:25;;;;;;;40.10;30.40;;;;;;;4.14;93.84;103487.09;5032174;28;20032;-69
2022/01/23 01:47:52;;;;;;;34.88;28.33;;;;;;;4.15;93.81;103488.84;5033968;28;20617;-70
2022/01/23 01:50:18;;;;;;;35.72;28.52;;;;;;;4.13;94.02;103488.84;5032965;28;20091;-70
2022/01/23 01:52:43;;;;;;;39.00;29.33;;;;;;;4.13;93.85;103499.38;5026432;28;20065;-70
2022/01/23 01:55:13;;;;;;;39.17;29.20;;;;;;;4.11;94.03;103495.00;5033983;28;20052;-70
2022/01/23 01:57:44;;;;;;;39.05;30.40;;;;;;;4.12;94.41;103495.00;5033894;28;20056;-70
2022/01/23 02:10:48;;;;;;;36.08;28.05;;;;;;;4.12;94.13;103494.13;5033089;28;20399;-69
2022/01/23 02:13:16;;;;;;;37.17;27.58;;;;;;;4.14;94.05;103502.88;5033581;28;20048;-69
2022/01/23 02:16:05;;;;;;;36.67;28.27;;;;;;;4.13;94.04;103502.00;5033484;28;20540;-69
2022/01/23 02:51:36;;;;;;;38.83;27.13;;;;;;;4.08;94.11;103465.22;5027910;28;20044;-71
2022/01/23 02:56:39;;;;;;;33.97;26.77;;;;;;;4.08;93.80;103454.69;5026619;28;20479;-70
2022/01/23 02:59:19;;;;;;;37.08;27.45;;;;;;;4.07;94.14;103447.66;5032805;28;20033;-70
2022/01/23 03:02:00;;;;;;;35.17;26.48;;;;;;;4.07;94.27;103447.66;5032757;28;20463;-70
2022/01/23 03:04:26;;;;;;;37.60;26.42;;;;;;;4.08;94.19;103448.56;5027281;28;20033;-70
2022/01/23 03:07:08;;;;;;;35.92;27.08;;;;;;;4.08;94.33;103456.47;5032534;28;20521;-70
2022/01/23 03:28:27;;;;;;;36.65;27.23;;;;;;;4.07;93.94;103473.09;5019164;28;20029;-70
2022/01/23 03:33:34;;;;;;;35.80;27.92;;;;;;;4.07;94.08;103479.22;5032196;28;20388;-70
2022/01/23 03:36:00;;;;;;;36.55;28.00;;;;;;;4.07;94.10;103473.09;5032024;28;20038;-70
2022/01/23 03:38:25;;;;;;;37.10;27.38;;;;;;;4.07;93.96;103478.38;5032014;28;20028;-70
2022/01/23 03:40:50;;;;;;;37.97;28.80;;;;;;;4.07;94.14;103467.84;5026863;28;20418;-70
2022/01/23 03:43:22;;;;;;;36.45;28.73;;;;;;;4.06;94.30;103474.88;5031868;28;20025;-70
2022/01/23 03:51:09;;;;;;;41.47;29.20;;;;;;;4.04;94.31;103470.50;5031937;28;20034;-69
2022/01/23 03:53:35;;;;;;;40.65;29.33;;;;;;;4.05;94.22;103470.47;5031805;28;20084;-70
2022/01/23 03:56:00;;;;;;;37.80;29.73;;;;;;;4.05;94.07;103472.25;5026007;28;20061;-70
2022/01/23 03:58:25;;;;;;;34.80;28.27;;;;;;;4.06;94.24;103473.97;5030530;28;20033;-69
2022/01/23 04:00:51;;;;;;;38.35;29.42;;;;;;;4.05;94.29;103472.25;5021428;28;20168;-70
2022/01/23 04:03:18;;;;;;;41.70;29.83;;;;;;;4.03;94.44;103467.00;5030635;28;20116;-70
2022/01/23 04:05:44;;;;;;;36.63;28.20;;;;;;;4.06;94.38;103472.25;5020984;28;20021;-69
2022/01/23 04:08:09;;;;;;;40.17;29.95;;;;;;;4.06;94.30;103481.88;5031374;28;20229;-69
2022/01/23 04:10:35;;;;;;;36.97;28.27;;;;;;;4.06;94.23;103479.25;5023565;28;20400;-69
2022/01/23 04:13:28;;;;;;;42.47;31.33;;;;;;;4.05;94.21;103482.78;5031699;28;20120;-69
2022/01/23 04:16:08;;;;;;;42.58;31.63;;;;;;;4.07;94.46;103488.88;5015793;28;20054;-70
2022/01/23 04:21:17;;;;;;;40.30;30.88;;;;;;;4.07;94.35;103486.25;5031082;28;20063;-70
2022/01/23 04:34:31;;;;;;;39.20;29.90;;;;;;;4.05;94.12;103491.53;5023105;28;20037;-70
2022/01/23 05:04:28;;;;;;;41.45;30.40;;;;;;;4.05;94.29;103496.78;5023025;28;20033;-70
2022/01/23 05:07:09;;;;;;;42.42;32.03;;;;;;;4.06;94.24;103497.66;5017899;28;20446;-70
2022/01/23 05:09:34;;;;;;;41.60;31.27;;;;;;;4.06;94.19;103492.38;5030318;28;20386;-70
2022/01/23 05:12:06;;;;;;;51.58;36.45;;;;;;;4.04;94.42;103481.88;5030540;28;20025;-70
2022/01/23 05:14:41;;;;;;;44.72;31.60;;;;;;;4.04;94.24;103484.50;5025841;28;20026;-70
2022/01/23 05:17:09;;;;;;;42.33;30.42;;;;;;;4.03;94.60;103492.41;5024266;28;20038;-69
2022/01/23 05:19:35;;;;;;;39.17;30.43;;;;;;;4.05;94.59;103491.53;5029059;28;20025;-69
2022/01/23 05:22:17;;;;;;;39.72;30.52;;;;;;;4.05;94.54;103485.41;5028198;28;20194;-69
2022/01/23 05:24:50;;;;;;;44.60;31.35;;;;;;;4.02;94.55;103481.03;5028587;28;20033;-69
2022/01/23 05:27:15;;;;;;;44.80;31.25;;;;;;;4.03;94.56;103488.03;5014077;28;20103;-69
2022/01/23 05:29:41;;;;;;;44.15;30.33;;;;;;;4.04;94.79;103492.41;5008781;28;20088;-70
2022/01/23 05:32:09;;;;;;;42.25;30.80;;;;;;;4.05;94.60;103493.28;5008807;28;20022;-69
2022/01/23 05:34:35;;;;;;;43.37;30.63;;;;;;;4.04;94.48;103496.78;5009298;28;20034;-69
2022/01/23 05:37:00;;;;;;;41.88;30.92;;;;;;;4.07;94.57;103494.16;5010673;28;20052;-70
2022/01/23 05:39:27;;;;;;;42.92;30.88;;;;;;;4.06;94.45;103498.53;5010587;28;20026;-70
2022/01/23 05:41:58;;;;;;;46.40;31.50;;;;;;;4.06;94.52;103503.81;5010658;28;20499;-69
2022/01/23 05:44:24;;;;;;;40.10;29.50;;;;;;;4.07;94.59;103496.78;5009750;28;20025;-69
2022/01/23 05:46:49;;;;;;;43.10;30.55;;;;;;;4.07;94.53;103499.41;5010391;28;20037;-70
2022/01/23 05:49:15;;;;;;;40.70;30.65;;;;;;;4.08;94.23;103498.53;5010359;28;20040;-69
2022/01/23 05:51:40;;;;;;;40.83;30.50;;;;;;;4.07;94.32;103499.41;5010486;28;20057;-69
2022/01/23 05:54:05;;;;;;;43.22;30.65;;;;;;;4.06;94.45;103497.66;5010449;28;20049;-69
2022/01/23 05:56:31;;;;;;;42.78;31.63;;;;;;;4.06;94.18;103495.91;5010565;28;20133;-70
2022/01/23 05:58:57;;;;;;;46.25;31.60;;;;;;;4.06;94.30;103490.66;5010219;28;20033;-69
2022/01/23 06:01:22;;;;;;;42.50;31.10;;;;;;;4.06;94.24;103488.03;5010418;28;20038;-69
2022/01/23 06:03:47;;;;;;;41.80;31.73;;;;;;;4.05;94.27;103483.63;5010330;28;20034;-69
2022/01/23 06:06:13;;;;;;;44.08;31.98;;;;;;;4.05;94.41;103488.91;5010697;28;20026;-69
2022/01/23 06:08:38;;;;;;;43.47;32.40;;;;;;;4.07;94.41;103486.25;5015052;28;20025;-69
2022/01/23 06:11:03;;;;;;;40.70;32.53;;;;;;;4.06;94.31;103488.03;5014099;28;20434;-69
2022/01/23 06:13:31;;;;;;;42.67;32.13;;;;;;;4.07;94.38;103489.75;5013814;28;20037;-69
2022/01/23 06:15:57;;;;;;;46.67;33.78;;;;;;;4.07;94.37;103488.88;5014028;28;20022;-69
2022/01/23 06:18:22;;;;;;;41.30;32.65;;;;;;;4.06;94.32;103487.13;5014003;28;20045;-69
2022/01/23 06:20:47;;;;;;;49.60;33.30;;;;;;;4.06;94.28;103490.66;5030772;28;20464;-69
2022/01/23 06:23:13;;;;;;;46.00;32.42;;;;;;;4.07;94.54;103494.16;5020074;28;20052;-69
2022/01/23 06:25:46;;;;;;;45.95;32.58;;;;;;;4.08;94.69;103495.91;5013820;28;20026;-69
2022/01/23 06:28:22;;;;;;;43.30;32.10;;;;;;;4.05;94.62;103493.28;5013561;28;20399;-70
2022/01/23 06:30:47;;;;;;;44.00;33.50;;;;;;;4.06;94.46;103493.28;5013750;28;20496;-70
2022/01/23 06:33:12;;;;;;;44.70;33.05;;;;;;;4.05;94.51;103496.78;5013472;28;20056;-70
2022/01/23 06:35:37;;;;;;;46.22;32.72;;;;;;;4.03;94.66;103501.19;5013602;28;20495;-69
2022/01/23 06:38:03;;;;;;;47.53;33.20;;;;;;;4.03;94.61;103490.66;5013558;28;20060;-69
2022/01/23 06:40:28;;;;;;;48.53;32.83;;;;;;;4.04;94.48;103489.78;5013317;28;20129;-69
2022/01/23 06:42:53;;;;;;;45.72;33.20;;;;;;;4.04;94.29;103494.16;5013975;28;20033;-69
2022/01/23 06:45:19;;;;;;;46.42;33.30;;;;;;;4.02;94.50;103504.69;5013035;28;20480;-70
2022/01/23 06:47:44;;;;;;;48.25;33.88;;;;;;;4.03;94.36;103503.81;5013245;28;20036;-70
2022/01/23 06:50:09;;;;;;;43.25;33.78;;;;;;;4.03;94.49;103502.91;5013287;28;20025;-69
2022/01/23 06:52:35;;;;;;;45.15;33.65;;;;;;;4.02;94.47;103509.94;5013008;28;20026;-69
2022/01/23 06:55:00;;;;;;;47.05;33.60;;;;;;;4.02;94.31;103509.94;5012791;28;20495;-70
2022/01/23 06:57:25;;;;;;;42.40;32.80;;;;;;;4.04;94.63;103504.69;5013063;28;20102;-70
2022/01/23 06:59:51;;;;;;;45.30;33.35;;;;;;;4.04;94.56;103504.69;5013035;28;20057;-69
2022/01/23 07:02:16;;;;;;;48.95;34.95;;;;;;;4.04;94.59;103509.94;5013152;28;20480;-69
2022/01/23 07:04:41;;;;;;;46.25;33.97;;;;;;;4.01;94.29;103513.47;5012814;28;20036;-69
2022/01/23 07:07:06;;;;;;;47.92;33.80;;;;;;;4.02;94.75;103522.25;5012889;28;20057;-70
2022/01/23 07:09:32;;;;;;;43.67;33.85;;;;;;;4.02;94.64;103522.25;5013139;28;20476;-70
2022/01/23 07:11:57;;;;;;;44.00;33.47;;;;;;;4.00;94.63;103527.50;5012786;28;20442;-69
2022/01/23 07:14:22;;;;;;;46.97;34.78;;;;;;;4.00;94.63;103527.50;5012226;28;20033;-69
2022/01/23 07:16:48;;;;;;;49.67;35.42;;;;;;;4.01;94.72;103536.25;5012613;28;20030;-69
2022/01/23 07:19:13;;;;;;;44.17;32.47;;;;;;;4.00;94.67;103532.75;5016150;28;20491;-70
2022/01/23 07:21:38;;;;;;;49.47;33.90;;;;;;;4.01;94.90;103533.63;5021892;28;20033;-70
2022/01/23 07:24:04;;;;;;;47.22;34.03;;;;;;;4.01;94.83;103542.41;5032250;28;20131;-70
2022/01/23 07:26:30;;;;;;;47.72;34.35;;;;;;;4.00;95.02;103540.66;5032138;28;20036;-70
2022/01/23 07:28:58;;;;;;;46.90;35.00;;;;;;;4.01;94.63;103549.41;5026557;28;20056;-70
2022/01/23 07:31:55;;;;;;;45.58;33.80;;;;;;;4.00;94.76;103552.94;5032441;28;20017;-70
2022/01/23 07:34:18;;;;;;;47.83;34.42;;;;;;;4.00;95.17;103556.44;5018677;28;20042;-70
2022/01/23 07:36:43;;;;;;;47.67;34.45;;;;;;;4.00;94.71;103555.56;5032152;28;20037;-70
2022/01/23 07:39:08;;;;;;;49.63;35.25;;;;;;;3.99;94.69;103554.66;5031697;28;20467;-70
2022/01/23 07:41:33;;;;;;;51.20;35.08;;;;;;;3.99;94.70;103559.06;5024422;28;20052;-70
2022/01/23 07:43:59;;;;;;;47.25;33.95;;;;;;;4.00;94.74;103556.44;5031633;28;20032;-70
2022/01/23 07:46:24;;;;;;;45.78;34.97;;;;;;;3.99;94.70;103559.94;5029356;28;20120;-70
2022/01/23 07:48:50;;;;;;;43.78;32.42;;;;;;;3.99;94.65;103564.31;5030838;28;20483;-70
2022/01/23 07:51:15;;;;;;;46.85;35.40;;;;;;;3.98;94.83;103568.72;5025697;28;20025;-70
2022/01/23 07:53:40;;;;;;;44.03;33.22;;;;;;;3.98;95.03;103570.44;5030055;28;20038;-70
2022/01/23 07:56:06;;;;;;;49.58;34.28;;;;;;;4.00;94.76;103564.31;5018281;28;20483;-70
2022/01/23 07:58:31;;;;;;;48.67;33.40;;;;;;;3.98;94.98;103568.72;5014013;28;20352;-70
2022/01/23 08:00:56;;;;;;;44.75;33.90;;;;;;;3.99;95.00;103562.56;5016376;28;20042;-70
2022/01/23 08:03:21;;;;;;;47.08;34.28;;;;;;;4.02;94.91;103574.84;5013842;28;20033;-70
2022/01/23 08:05:47;;;;;;;47.38;34.58;;;;;;;4.03;95.00;103572.19;5022207;28;20488;-70
2022/01/23 08:08:12;;;;;;;44.85;32.95;;;;;;;4.02;95.22;103566.94;5014343;28;20037;-70
2022/01/23 08:10:39;;;;;;;43.92;33.15;;;;;;;4.03;94.95;103571.31;5015499;28;20099;-70
2022/01/23 08:13:05;;;;;;;48.83;34.75;;;;;;;4.02;95.01;103569.56;5015546;28;21375;-70
2022/01/23 08:15:31;;;;;;;44.85;33.75;;;;;;;4.01;95.06;103568.72;5010884;28;20049;-70
2022/01/23 08:18:04;;;;;;;48.08;35.25;;;;;;;4.02;95.10;103567.81;5017370;28;20026;-70
2022/01/23 08:20:32;;;;;;;48.17;33.58;;;;;;;4.03;94.91;103573.94;5010089;28;20124;-71
2022/01/23 08:22:59;;;;;;;49.80;34.22;;;;;;;4.03;95.08;103574.81;5014212;28;20614;-70
2022/01/23 08:25:24;;;;;;;48.25;35.10;;;;;;;4.03;95.17;103574.81;5012528;28;20375;-70
2022/01/23 08:27:49;;;;;;;44.05;34.38;;;;;;;4.04;95.15;103576.56;5017176;28;20029;-70
2022/01/23 08:30:15;;;;;;;46.85;34.03;;;;;;;4.06;95.08;103571.28;5023400;28;20123;-70
2022/01/23 08:32:40;;;;;;;44.35;34.75;;;;;;;4.07;95.30;103580.94;5029836;28;20034;-70
2022/01/23 08:35:06;;;;;;;52.35;35.75;;;;;;;4.08;95.11;103580.94;5026773;28;20021;-71
2022/01/23 08:37:32;;;;;;;47.92;34.13;;;;;;;4.08;94.90;103578.31;5034370;28;20468;-70
2022/01/23 08:39:57;;;;;;;46.55;34.05;;;;;;;4.11;95.03;103589.69;5026051;28;20038;-70
2022/01/23 08:42:23;;;;;;;47.65;33.85;;;;;;;4.11;94.88;103587.91;5026624;28;20103;-70
2022/01/23 08:44:50;;;;;;;45.30;32.67;;;;;;;4.11;95.07;103589.69;5022009;28;20652;-70
2022/01/23 08:47:17;;;;;;;49.42;34.20;;;;;;;4.12;95.03;103601.97;5026517;28;20065;-70
2022/01/23 08:49:48;;;;;;;47.33;34.50;;;;;;;4.11;95.01;103600.22;5030917;28;20495;-70
2022/01/23 08:52:20;;;;;;;48.45;34.83;;;;;;;4.14;95.17;103602.81;5028578;28;20041;-70
2022/01/23 08:54:49;;;;;;;48.10;34.30;;;;;;;4.14;95.28;103602.81;5029431;28;20049;-71
2022/01/23 08:57:15;;;;;;;48.17;35.25;;;;;;;4.16;95.14;103609.81;5017875;28;20048;-70
2022/01/23 08:59:40;;;;;;;45.22;33.53;;;;;;;4.17;95.43;103611.56;5014763;28;20455;-70
2022/01/23 09:02:06;;;;;;;48.72;34.60;;;;;;;4.19;95.42;103606.31;5015378;28;20034;-70
2022/01/23 09:04:32;;;;;;;49.05;34.65;;;;;;;4.18;95.44;103608.06;5018615;28;20113;-70
2022/01/23 09:06:57;;;;;;;47.53;34.88;;;;;;;4.19;95.57;103608.94;5015926;28;20049;-70
2022/01/23 09:09:24;;;;;;;48.58;35.15;;;;;;;4.23;95.43;103605.38;5012040;28;20460;-70
2022/01/23 09:12:20;;;;;;;49.25;34.72;;;;;;;4.22;95.38;103599.25;5029550;28;20041;-70
2022/01/23 09:14:37;;;;;;;48.72;34.47;;;;;;;4.24;95.23;103596.63;5030840;28;20044;-70
2022/01/23 09:17:05;;;;;;;47.92;36.05;;;;;;;4.23;95.26;103606.28;5034613;28;20033;-70
2022/01/23 09:19:30;;;;;;;47.65;35.17;;;;;;;4.26;95.75;103595.75;5023245;28;20105;-74
2022/01/23 09:21:57;;;;;;;50.05;35.60;;;;;;;4.30;95.33;103595.69;5022586;28;20112;-71
2022/01/23 09:24:24;;;;;;;49.75;36.53;;;;;;;4.30;95.23;103590.44;5020581;28;20088;-70
2022/01/23 09:27:00;;;;;;;47.40;34.33;;;;;;;4.32;95.01;103597.47;5019476;28;20041;-70
2022/01/23 09:29:32;;;;;;;50.42;35.22;;;;;;;4.34;95.32;103592.19;5030031;28;20483;-70
2022/01/23 09:31:58;;;;;;;49.33;35.20;;;;;;;4.36;95.18;103601.81;5027406;28;20040;-71
2022/01/23 09:34:26;;;;;;;49.55;35.80;;;;;;;4.37;95.22;103598.31;5031499;28;20390;-70
2022/01/23 09:36:55;;;;;;;48.53;36.25;;;;;;;4.38;95.10;103600.06;5017433;28;20121;-71
2022/01/23 09:39:20;;;;;;;50.08;36.72;;;;;;;4.40;94.65;103602.69;5028925;28;20036;-70
2022/01/23 09:41:50;;;;;;;47.03;35.80;;;;;;;4.40;94.77;103600.06;5031816;28;20120;-71
2022/01/23 09:44:16;;;;;;;47.58;36.22;;;;;;;4.42;94.52;103609.66;5035193;28;20449;-70
2022/01/23 09:46:44;;;;;;;44.88;34.95;;;;;;;4.44;94.32;103602.63;5033603;28;20132;-71
2022/01/23 09:49:12;;;;;;;48.28;36.28;;;;;;;4.47;94.50;103608.78;5021199;28;20018;-71
2022/01/23 09:51:41;;;;;;;46.42;35.58;;;;;;;4.50;94.50;103614.03;5035588;28;20102;-71
2022/01/23 09:54:08;;;;;;;48.50;35.40;;;;;;;4.51;94.20;103611.34;5025313;28;20519;-70
2022/01/23 09:56:35;;;;;;;52.55;35.33;;;;;;;4.53;94.45;103613.97;5034587;28;20067;-71
2022/01/23 09:59:00;;;;;;;48.65;35.72;;;;;;;4.55;94.60;103613.09;5033728;28;20159;-70
2022/01/23 10:01:26;;;;;;;50.42;36.42;;;;;;;4.57;94.31;103618.38;5029852;28;20124;-71
2022/01/23 10:03:51;;;;;;;47.60;35.95;;;;;;;4.61;94.21;103615.72;5036068;28;20067;-71
2022/01/23 10:06:17;;;;;;;47.80;35.35;;;;;;;4.64;94.25;103625.31;5036423;28;20056;-71
2022/01/23 10:08:43;;;;;;;51.30;36.40;;;;;;;4.68;94.19;103623.53;5029267;28;20029;-71
2022/01/23 10:11:12;;;;;;;47.83;36.13;;;;;;;4.72;94.19;103620.88;5035012;28;20519;-71
2022/01/23 10:13:38;;;;;;;47.65;35.10;;;;;;;4.74;93.83;103618.25;5029878;28;20025;-71
2022/01/23 10:16:04;;;;;;;47.50;35.25;;;;;;;4.76;93.64;103616.47;5025379;28;20091;-71
2022/01/23 10:18:29;;;;;;;49.67;34.65;;;;;;;4.77;93.45;103623.50;5036759;28;20491;-71
2022/01/23 10:20:55;;;;;;;49.45;36.03;;;;;;;4.79;93.80;103617.31;5017173;28;20028;-71
2022/01/23 10:23:20;;;;;;;50.22;36.42;;;;;;;4.82;94.16;103619.06;5021384;28;20060;-71
2022/01/23 10:25:48;;;;;;;46.40;35.63;;;;;;;4.86;94.01;103620.75;5017349;28;20030;-71
2022/01/23 10:28:21;;;;;;;45.33;34.08;;;;;;;4.88;93.38;103616.38;5014601;28;20045;-72
2022/01/23 10:30:53;;;;;;;50.40;37.13;;;;;;;4.92;93.85;103615.47;5015668;28;20108;-72
2022/01/23 10:33:20;;;;;;;48.20;34.33;;;;;;;4.93;93.55;103609.31;5022151;28;20022;-72
2022/01/23 10:36:06;;;;;;;48.58;35.22;;;;;;;5.00;93.87;103607.50;5034342;28;20422;-74
2022/01/23 10:39:00;;;;;;;49.13;35.65;;;;;;;5.04;94.24;103611.84;5033251;28;20471;-73
2022/01/23 10:49:58;;;;;;;48.47;34.85;;;;;;;5.16;93.20;103610.84;5017986;28;20434;-71
2022/01/23 10:52:32;;;;;;;46.88;34.70;;;;;;;5.20;93.00;103609.94;5014784;28;20042;-71
2022/01/23 10:54:58;;;;;;;46.85;34.38;;;;;;;5.22;92.90;103605.53;5012921;28;20026;-74
2022/01/23 10:57:32;;;;;;;46.92;34.85;;;;;;;5.25;92.71;103604.66;5013227;28;20034;-72
2022/01/23 10:59:57;;;;;;;47.17;34.75;;;;;;;5.28;92.47;103602.84;5017612;28;20065;-70
2022/01/23 11:02:26;;;;;;;46.20;34.53;;;;;;;5.31;92.29;103599.28;5020765;28;20150;-70
2022/01/23 11:05:04;;;;;;;49.10;34.30;;;;;;;5.32;92.05;103604.56;5005924;28;20045;-71
2022/01/23 11:07:31;;;;;;;50.00;35.73;;;;;;;5.37;91.59;103607.16;5030765;28;20075;-71
2022/01/23 11:10:13;;;;;;;48.92;35.60;;;;;;;5.41;91.62;103613.25;5028886;28;20517;-71
2022/01/23 11:18:07;;;;;;;47.78;34.08;;;;;;;5.46;91.24;103598.25;5024734;28;20396;-70
2022/01/23 11:20:39;;;;;;;45.15;34.67;;;;;;;5.50;91.91;103586.81;5015126;28;20103;-71
2022/01/23 11:23:24;;;;;;;42.58;34.08;;;;;;;5.53;91.19;103595.56;5021187;28;20506;-71
2022/01/23 11:25:55;;;;;;;46.35;35.25;;;;;;;5.56;90.69;103592.88;5026442;28;20048;-71
2022/01/23 11:28:28;;;;;;;45.60;35.03;;;;;;;5.60;90.81;103585.81;5049861;28;20361;-71
2022/01/23 11:30:54;;;;;;;46.60;34.90;;;;;;;5.64;90.71;103589.28;5035735;28;20033;-70
2022/01/23 11:33:20;;;;;;;42.20;33.90;;;;;;;5.65;90.04;103584.00;5036868;28;20558;-70
2022/01/23 11:35:46;;;;;;;49.03;34.53;;;;;;;5.67;89.15;103587.47;5044307;28;20025;-71
2022/01/23 11:38:15;;;;;;;41.90;33.35;;;;;;;5.70;89.65;103579.53;5030740;28;20098;-71
2022/01/23 11:50:41;;;;;;;44.92;34.67;;;;;;;5.71;89.97;103577.75;5019207;28;20206;-71
2022/01/23 11:53:45;;;;;;;41.72;32.72;;;;;;;5.83;89.05;103576.72;5018472;28;20410;-70
2022/01/23 11:55:03;;;;;;;36.90;30.17;;;;;;;5.86;88.71;103569.69;5027505;28;20057;-70
2022/01/23 11:57:42;;;;;;;43.83;31.17;;;;;;;5.87;88.61;103568.75;5016973;28;20115;-70
2022/01/23 12:00:25;;;;;;;39.08;29.40;;;;;;;5.88;88.72;103564.38;5014910;28;20384;-71
2022/01/23 12:03:19;;;;;;;38.95;30.52;;;;;;;5.91;88.74;103575.75;5018001;28;20041;-70
2022/01/23 12:05:47;;;;;;;38.70;30.35;;;;;;;5.92;88.57;103566.06;5020643;28;20124;-71
2022/01/23 12:08:16;;;;;;;40.63;30.83;;;;;;;5.96;88.83;103566.91;5030604;28;20120;-70
2022/01/23 12:11:15;;;;;;;36.25;28.48;;;;;;;5.98;87.38;103566.03;5031326;28;20021;-70
2022/01/23 12:18:49;;;;;;;41.75;29.75;;;;;;;6.06;86.96;103555.34;5031864;28;20292;-71
2022/01/23 12:21:28;;;;;;;38.03;28.70;;;;;;;6.08;87.18;103543.91;5031345;28;20446;-70
2022/01/23 12:24:02;;;;;;;39.05;29.80;;;;;;;6.11;87.81;103546.50;5018471;28;20045;-70
2022/01/23 12:26:28;;;;;;;42.20;31.17;;;;;;;6.14;88.03;103544.69;5029748;28;20033;-70
2022/01/23 12:28:53;;;;;;;42.40;33.30;;;;;;;6.16;87.80;103548.19;5029928;28;20022;-70
2022/01/23 12:31:26;;;;;;;43.60;33.58;;;;;;;6.14;87.66;103549.97;5031325;28;20018;-70
2022/01/23 12:33:54;;;;;;;43.15;33.22;;;;;;;6.17;87.90;103542.03;5027813;28;20503;-70
2022/01/23 12:36:22;;;;;;;42.58;32.97;;;;;;;6.17;88.20;103544.66;5031896;28;20108;-71
2022/01/23 12:38:50;;;;;;;42.40;32.27;;;;;;;6.20;87.93;103542.84;5028618;28;20376;-70
2022/01/23 12:41:23;;;;;;;41.15;33.20;;;;;;;6.19;88.19;103535.81;5025102;28;20547;-70
2022/01/23 12:43:58;;;;;;;42.00;31.00;;;;;;;6.23;87.31;103536.66;5025006;28;20041;-71
2022/01/23 12:46:30;;;;;;;38.45;30.10;;;;;;;6.21;86.95;103530.50;5026011;28;20048;-70
2022/01/23 12:48:59;;;;;;;42.33;30.92;;;;;;;6.21;86.86;103528.78;5030419;28;20029;-70
2022/01/23 12:51:32;;;;;;;39.40;31.43;;;;;;;6.22;86.75;103532.28;5019287;28;20417;-70
2022/01/23 12:53:58;;;;;;;38.05;29.63;;;;;;;6.22;85.66;103534.91;5026134;28;20053;-70
2022/01/23 12:56:28;;;;;;;38.93;30.60;;;;;;;6.22;86.62;103530.50;5025963;28;20056;-70
2022/01/23 12:59:04;;;;;;;40.25;30.13;;;;;;;6.23;86.60;103528.75;5030036;28;20135;-70
2022/01/23 13:01:30;;;;;;;38.65;30.65;;;;;;;6.24;86.40;103525.19;5029329;28;20028;-70
2022/01/23 13:03:57;;;;;;;40.47;30.17;;;;;;;6.25;86.12;103519.03;5026792;28;20033;-70
2022/01/23 13:07:00;;;;;;;43.38;33.60;;;;;;;6.29;86.28;103526.00;5027117;28;20047;-70
2022/01/23 13:12:12;;;;;;;41.63;32.72;;;;;;;6.34;86.94;103516.22;5024200;28;20112;-70
2022/01/23 13:18:11;;;;;;;46.88;33.63;;;;;;;6.37;86.99;103512.69;5027297;28;20382;-70
2022/01/23 13:32:05;;;;;;;48.03;32.70;;;;;;;6.35;86.18;103496.88;5029597;28;20280;-70
2022/01/23 13:34:36;;;;;;;46.42;34.85;;;;;;;6.39;85.94;103511.75;5026103;28;20475;-70
2022/01/23 13:37:05;;;;;;;48.85;33.70;;;;;;;6.39;85.58;103501.19;5018973;28;20025;-70
2022/01/23 13:39:33;;;;;;;;;;;;;;;6.51;87.57;103500.13;5029417;28;20080;-70
2022/01/23 13:54:02;;;;;;;44.28;33.03;;;;;;;6.48;86.04;103497.56;5027004;28;20052;-70
2022/01/23 13:59:36;;;;;;;43.22;33.85;;;;;;;6.49;85.94;103494.00;5027752;28;20040;-70
2022/01/23 14:04:37;;;;;;;43.50;34.17;;;;;;;6.47;85.58;103490.50;5028917;28;20038;-70
2022/01/23 14:07:03;;;;;;;43.67;32.88;;;;;;;6.47;85.30;103479.97;5025741;28;20458;-70
2022/01/23 14:09:28;;;;;;;42.38;33.75;;;;;;;6.48;85.33;103479.94;5026211;28;20053;-70
2022/01/23 14:11:55;;;;;;;44.20;34.88;;;;;;;6.50;85.83;103481.69;5028092;28;20033;-70
2022/01/23 14:14:24;;;;;;;44.60;33.10;;;;;;;6.49;86.13;103478.16;5026257;28;20037;-70
2022/01/23 14:16:53;;;;;;;42.45;32.75;;;;;;;6.50;86.38;103466.69;5005972;28;20069;-70
2022/01/23 14:19:30;;;;;;;47.60;35.83;;;;;;;6.56;85.96;103476.28;5013577;28;20048;-70
2022/01/23 14:21:59;;;;;;;45.65;34.42;;;;;;;6.52;85.16;103475.47;5020553;28;20069;-70
2022/01/23 14:24:33;;;;;;;48.97;35.97;;;;;;;6.58;85.49;103483.28;5015851;28;20488;-70
2022/01/23 14:27:01;;;;;;;46.05;33.92;;;;;;;6.57;84.96;103483.31;5015641;28;20042;-70
2022/01/23 14:29:32;;;;;;;43.38;32.50;;;;;;;6.59;85.02;103489.44;5020089;28;20042;-70
2022/01/23 14:32:17;;;;;;;42.30;33.17;;;;;;;6.61;85.64;103488.53;5019276;28;20465;-70
2022/01/23 14:34:43;;;;;;;42.58;32.60;;;;;;;6.60;85.29;103499.09;5032442;28;20034;-70
2022/01/23 14:37:08;;;;;;;44.17;32.40;;;;;;;6.59;85.15;103494.72;5032393;28;20466;-70
2022/01/23 14:39:35;;;;;;;43.58;33.75;;;;;;;6.55;85.26;103488.63;5027871;28;20132;-70
2022/01/23 14:42:12;;;;;;;44.22;33.80;;;;;;;6.59;85.42;103500.84;5032311;28;20068;-70
2022/01/23 14:44:38;;;;;;;43.85;33.65;;;;;;;6.54;85.10;103500.06;5018965;28;20041;-70
2022/01/23 14:47:03;;;;;;;46.40;34.30;;;;;;;6.57;85.72;103497.38;5030885;28;20485;-70
2022/01/23 14:49:30;;;;;;;42.75;34.63;;;;;;;6.55;86.07;103496.53;5034033;28;20046;-70
2022/01/23 14:51:59;;;;;;;41.90;33.30;;;;;;;6.53;85.38;103497.44;5034029;28;20022;-70
2022/01/23 14:54:25;;;;;;;43.28;33.85;;;;;;;6.56;85.48;103500.03;5023843;28;20483;-70
2022/01/23 14:56:51;;;;;;;46.08;33.92;;;;;;;6.55;84.86;103493.91;5033923;28;20037;-70
2022/01/23 14:59:17;;;;;;;42.65;33.00;;;;;;;6.54;84.67;103497.44;5026203;28;20384;-70
2022/01/23 15:01:44;;;;;;;44.13;32.45;;;;;;;6.50;85.39;103489.59;5026707;28;20026;-70